Time;durP1;ratioP1;P1;durP2;ratioP2;P2;SDS_P1;SDS_P2;PMS_P1;PMS_P2;Temp;Humidity;BMP_temperature;BMP_pressure;BME280_temperature;BME280_humidity;BME280_pressure;Samples;Min_cycle;Max_cycle;Signal;HPM_P1;HPM_P2
2022/10/14 00:01:21;;;;;;;143.23;22.05;;;10.50;99.90;;;;;;5027336;28;20025;-88
2022/10/14 00:03:47;;;;;;;126.22;22.48;;;10.50;99.90;;;;;;5033941;28;20021;-87
2022/10/14 00:06:19;;;;;;;189.55;25.40;;;10.60;99.90;;;;;;5030906;28;20030;-88
2022/10/14 00:08:46;;;;;;;165.40;24.02;;;10.60;99.90;;;;;;5029506;28;20033;-88
2022/10/14 00:11:14;;;;;;;160.65;24.88;;;10.60;99.90;;;;;;5028540;28;20550;-88
2022/10/14 00:13:40;;;;;;;145.52;23.60;;;10.70;99.90;;;;;;5028819;28;20034;-87
2022/10/14 00:16:13;;;;;;;84.63;22.63;;;10.70;99.90;;;;;;5031743;28;20554;-88
2022/10/14 00:18:38;;;;;;;72.28;22.48;;;10.70;99.90;;;;;;5042713;28;20044;-89
2022/10/14 00:21:04;;;;;;;78.68;22.33;;;10.80;99.90;;;;;;5031070;28;20034;-88
2022/10/14 00:23:29;;;;;;;62.78;21.00;;;10.80;99.90;;;;;;5031301;28;20034;-88
2022/10/14 00:25:55;;;;;;;59.85;19.77;;;10.80;99.90;;;;;;5030908;28;20032;-88
2022/10/14 00:28:20;;;;;;;48.38;20.67;;;10.80;99.90;;;;;;5031259;28;20045;-89
2022/10/14 00:30:57;;;;;;;54.85;21.05;;;10.80;99.90;;;;;;5030964;28;20025;-88
2022/10/14 00:33:23;;;;;;;106.90;23.38;;;10.90;99.90;;;;;;5026114;28;20030;-88
2022/10/14 00:36:00;;;;;;;87.63;23.05;;;10.90;99.90;;;;;;5036776;28;20070;-88
2022/10/14 00:38:26;;;;;;;76.60;24.73;;;11.00;99.90;;;;;;5034201;28;20061;-89
2022/10/14 00:40:53;;;;;;;64.78;22.98;;;11.00;99.90;;;;;;5044987;28;20465;-89
2022/10/14 00:43:20;;;;;;;117.82;25.92;;;11.00;99.90;;;;;;5035927;28;20038;-88
2022/10/14 00:45:45;;;;;;;70.97;23.65;;;11.00;99.90;;;;;;5034635;28;20064;-88
2022/10/14 00:48:11;;;;;;;103.20;24.63;;;11.10;99.90;;;;;;5034928;28;20061;-88
2022/10/14 00:50:40;;;;;;;118.65;25.80;;;11.10;99.90;;;;;;5034779;28;20567;-88
2022/10/14 00:53:06;;;;;;;78.82;23.13;;;11.10;99.90;;;;;;5028646;28;20045;-89
2022/10/14 00:55:33;;;;;;;82.60;23.33;;;11.10;99.90;;;;;;5027577;28;20037;-88
2022/10/14 00:57:58;;;;;;;68.13;22.08;;;11.10;99.90;;;;;;5024147;28;20049;-88
2022/10/14 01:00:24;;;;;;;59.80;21.60;;;11.10;99.90;;;;;;5031955;28;20393;-88
2022/10/14 01:02:49;;;;;;;59.70;21.05;;;11.10;99.90;;;;;;5035090;28;20109;-88
2022/10/14 01:05:18;;;;;;;60.47;21.98;;;11.20;99.90;;;;;;5034525;28;20029;-89
2022/10/14 01:08:10;;;;;;;95.30;23.98;;;11.10;99.90;;;;;;5034178;28;20107;-88
2022/10/14 01:10:46;;;;;;;69.03;21.85;;;11.20;99.90;;;;;;5034928;28;20029;-88
2022/10/14 01:13:30;;;;;;;127.63;27.25;;;11.20;99.90;;;;;;5028256;28;20033;-89
2022/10/14 01:16:19;;;;;;;78.75;27.67;;;11.20;99.90;;;;;;5019274;28;20049;-87
2022/10/14 01:19:22;;;;;;;82.90;26.80;;;11.20;99.90;;;;;;5028120;28;20025;-88
2022/10/14 01:21:54;;;;;;;90.00;28.10;;;11.20;99.90;;;;;;5033450;28;20508;-88
2022/10/14 01:24:41;;;;;;;73.85;26.73;;;11.20;99.90;;;;;;5050268;28;20045;-88
2022/10/14 01:27:29;;;;;;;91.90;25.90;;;11.30;99.90;;;;;;5026512;28;20021;-88
2022/10/14 01:30:15;;;;;;;90.57;27.75;;;11.30;99.90;;;;;;5034046;28;20413;-88
2022/10/14 01:33:20;;;;;;;88.78;27.77;;;11.30;99.90;;;;;;5034432;28;20028;-87
2022/10/14 01:36:01;;;;;;;70.88;26.40;;;11.30;99.90;;;;;;5029604;28;20508;-88
2022/10/14 01:38:34;;;;;;;90.82;32.38;;;11.30;99.90;;;;;;5030782;28;20032;-88
2022/10/14 01:41:30;;;;;;;146.43;34.97;;;11.30;99.90;;;;;;5050843;28;20388;-88
2022/10/14 01:44:01;;;;;;;92.93;33.53;;;11.40;99.90;;;;;;5044618;28;20033;-88
2022/10/14 01:46:28;;;;;;;99.97;35.58;;;11.40;99.90;;;;;;5028751;28;20102;-88
2022/10/14 01:48:59;;;;;;;103.22;35.80;;;11.40;99.90;;;;;;5037372;28;20056;-88
2022/10/14 01:51:38;;;;;;;123.70;37.15;;;11.50;99.90;;;;;;5034652;28;20089;-88
2022/10/14 01:54:11;;;;;;;120.15;39.42;;;11.50;99.90;;;;;;5033313;28;20037;-88
2022/10/14 01:56:38;;;;;;;97.57;35.47;;;11.60;99.90;;;;;;5043544;28;20485;-88
2022/10/14 01:59:06;;;;;;;138.00;39.80;;;11.60;99.90;;;;;;5048312;28;20036;-88
2022/10/14 02:01:33;;;;;;;146.38;41.10;;;11.60;99.90;;;;;;5032561;28;20065;-89
2022/10/14 02:03:59;;;;;;;94.93;38.45;;;11.70;99.90;;;;;;5033686;28;20068;-88
2022/10/14 02:06:36;;;;;;;107.72;39.08;;;11.70;99.90;;;;;;5039033;28;20037;-89
2022/10/14 02:09:04;;;;;;;140.82;41.13;;;11.70;99.90;;;;;;5034224;28;20025;-89
2022/10/14 02:11:38;;;;;;;150.32;41.20;;;11.80;99.90;;;;;;5049190;28;20496;-88
2022/10/14 02:14:51;;;;;;;124.10;37.90;;;11.90;99.90;;;;;;5033774;28;20475;-89
2022/10/14 02:17:42;;;;;;;94.45;33.40;;;11.90;99.90;;;;;;5022388;28;20045;-88
2022/10/14 02:20:32;;;;;;;124.18;36.22;;;11.90;99.90;;;;;;5034150;28;20036;-88
2022/10/14 02:23:18;;;;;;;103.15;35.15;;;11.80;99.90;;;;;;5037476;28;20037;-88
2022/10/14 02:25:46;;;;;;;133.80;37.92;;;11.90;99.90;;;;;;5026375;28;20100;-89
2022/10/14 02:28:18;;;;;;;105.28;36.45;;;11.90;99.90;;;;;;5036864;28;20079;-89
2022/10/14 02:30:52;;;;;;;106.50;35.03;;;11.90;99.90;;;;;;5034453;28;20508;-88
2022/10/14 02:33:21;;;;;;;121.72;39.13;;;11.90;99.90;;;;;;5033576;28;20044;-88
2022/10/14 02:35:48;;;;;;;110.18;40.25;;;11.90;99.90;;;;;;5033751;28;20029;-89
2022/10/14 02:38:17;;;;;;;107.53;41.08;;;11.90;99.90;;;;;;5032641;28;20057;-89
2022/10/14 02:40:49;;;;;;;127.95;41.63;;;12.00;99.90;;;;;;5031757;28;20120;-88
2022/10/14 02:43:15;;;;;;;116.10;41.50;;;12.00;99.90;;;;;;5036880;28;20105;-88
2022/10/14 02:45:42;;;;;;;118.65;40.05;;;12.00;99.90;;;;;;5032279;28;20100;-88
2022/10/14 02:48:09;;;;;;;132.40;42.15;;;12.10;99.90;;;;;;5043139;28;20171;-89
2022/10/14 02:50:34;;;;;;;115.07;40.60;;;12.10;99.90;;;;;;5030821;28;20042;-88
2022/10/14 02:53:00;;;;;;;125.13;42.15;;;12.10;99.90;;;;;;5047646;28;20029;-88
2022/10/14 02:55:25;;;;;;;142.48;42.47;;;12.10;99.90;;;;;;5032960;28;20040;-88
2022/10/14 02:57:51;;;;;;;179.60;45.97;;;12.10;99.90;;;;;;5031329;28;20083;-88
2022/10/14 03:00:17;;;;;;;135.90;44.67;;;12.10;99.90;;;;;;5028849;28;20394;-88
2022/10/14 03:02:42;;;;;;;118.00;41.30;;;12.10;99.90;;;;;;5028729;28;20094;-88
2022/10/14 03:05:08;;;;;;;142.43;44.85;;;12.20;99.90;;;;;;5035078;28;20114;-88
2022/10/14 03:07:34;;;;;;;133.98;45.17;;;12.20;99.90;;;;;;5024569;28;20493;-88
2022/10/14 03:09:59;;;;;;;150.13;43.40;;;12.20;99.90;;;;;;5031560;28;20029;-86
2022/10/14 03:12:25;;;;;;;145.45;44.60;;;12.20;99.90;;;;;;5029263;28;20014;-88
2022/10/14 03:14:50;;;;;;;164.15;46.70;;;12.30;99.90;;;;;;5030488;28;21455;-88
2022/10/14 03:17:16;;;;;;;141.20;45.95;;;12.20;99.90;;;;;;5027958;28;20112;-88
2022/10/14 03:19:42;;;;;;;138.15;45.58;;;12.20;99.90;;;;;;5029513;28;20493;-88
2022/10/14 03:22:07;;;;;;;140.95;47.65;;;12.30;99.90;;;;;;5035037;28;20060;-88
2022/10/14 03:24:33;;;;;;;123.93;45.15;;;12.30;99.90;;;;;;5046754;28;20175;-88
2022/10/14 03:26:58;;;;;;;136.15;45.03;;;12.40;99.90;;;;;;5029655;28;20034;-89
2022/10/14 03:29:24;;;;;;;129.90;45.42;;;12.40;99.90;;;;;;5029483;28;20028;-88
2022/10/14 03:31:49;;;;;;;101.50;43.05;;;12.40;99.90;;;;;;5035067;28;20476;-88
2022/10/14 03:34:15;;;;;;;103.60;42.88;;;12.50;99.90;;;;;;5050701;28;20032;-87
2022/10/14 03:36:40;;;;;;;108.93;43.80;;;12.50;99.90;;;;;;5030120;28;20026;-88
2022/10/14 03:39:06;;;;;;;110.18;43.63;;;12.50;99.90;;;;;;5032634;28;20078;-88
2022/10/14 03:41:32;;;;;;;106.15;42.58;;;12.50;99.90;;;;;;5031410;28;20024;-88
2022/10/14 03:43:57;;;;;;;102.85;42.53;;;12.60;99.90;;;;;;5033008;28;20476;-89
2022/10/14 03:46:23;;;;;;;107.68;43.22;;;12.50;99.90;;;;;;5023970;28;20063;-89
2022/10/14 03:48:48;;;;;;;103.15;40.75;;;12.60;99.90;;;;;;5032335;28;20041;-88
2022/10/14 03:51:14;;;;;;;99.03;40.35;;;12.60;99.90;;;;;;5030402;28;20025;-87
2022/10/14 03:53:40;;;;;;;100.28;41.85;;;12.60;99.90;;;;;;5012897;28;20121;-89
2022/10/14 03:56:05;;;;;;;94.78;40.90;;;12.60;99.90;;;;;;5017193;28;20512;-88
2022/10/14 03:58:31;;;;;;;105.13;41.13;;;12.60;99.90;;;;;;5031724;28;20104;-88
2022/10/14 04:00:57;;;;;;;108.13;41.42;;;12.70;99.90;;;;;;5032621;28;20040;-88
2022/10/14 04:03:22;;;;;;;97.50;41.60;;;12.60;99.90;;;;;;5036337;28;20090;-88
2022/10/14 04:05:48;;;;;;;100.38;41.78;;;12.60;99.90;;;;;;5045144;28;20026;-89
2022/10/14 04:08:13;;;;;;;90.32;39.88;;;12.70;99.90;;;;;;5032003;28;20048;-90
2022/10/14 04:10:39;;;;;;;93.13;40.22;;;12.70;99.90;;;;;;5035799;28;20028;-89
2022/10/14 04:13:04;;;;;;;86.25;38.58;;;12.70;99.90;;;;;;5031177;28;20061;-89
2022/10/14 04:15:30;;;;;;;91.63;38.92;;;12.70;99.90;;;;;;5030765;28;20128;-88
2022/10/14 04:17:55;;;;;;;88.43;39.22;;;12.70;99.90;;;;;;5028568;28;20032;-88
2022/10/14 04:20:22;;;;;;;94.75;38.40;;;12.70;99.90;;;;;;5030392;28;20085;-89
2022/10/14 04:22:47;;;;;;;96.68;39.75;;;12.70;99.90;;;;;;5037448;28;20040;-88
2022/10/14 04:25:13;;;;;;;86.50;37.42;;;12.80;99.90;;;;;;5029599;28;20117;-88
2022/10/14 04:27:38;;;;;;;79.45;37.25;;;12.80;99.90;;;;;;5041719;28;20096;-88
2022/10/14 04:30:05;;;;;;;77.20;37.25;;;12.70;99.90;;;;;;5029630;28;20103;-89
2022/10/14 04:32:30;;;;;;;79.75;38.28;;;12.70;99.90;;;;;;5029934;28;20021;-91
2022/10/14 04:34:56;;;;;;;86.00;38.22;;;12.70;99.90;;;;;;5023301;28;20091;-89
2022/10/14 04:37:21;;;;;;;77.50;36.50;;;12.80;99.90;;;;;;5037269;28;20013;-90
2022/10/14 04:39:47;;;;;;;84.03;35.63;;;12.80;99.90;;;;;;5034385;28;20033;-89
2022/10/14 04:42:13;;;;;;;79.13;36.05;;;12.80;99.90;;;;;;5034017;28;20457;-90
2022/10/14 04:44:38;;;;;;;77.85;36.53;;;12.80;99.90;;;;;;5030301;28;20033;-91
2022/10/14 04:47:04;;;;;;;67.47;33.55;;;12.80;99.90;;;;;;5038233;28;20104;-89
2022/10/14 04:49:29;;;;;;;70.57;34.00;;;12.80;99.90;;;;;;5028933;28;20513;-91
2022/10/14 04:51:55;;;;;;;78.82;34.65;;;12.80;99.90;;;;;;5033741;28;20033;-91
2022/10/14 04:54:21;;;;;;;70.45;34.58;;;12.80;99.90;;;;;;5031911;28;20072;-91
2022/10/14 04:56:46;;;;;;;63.45;32.67;;;12.80;99.90;;;;;;5022736;28;20109;-90
2022/10/14 04:59:12;;;;;;;73.28;33.42;;;12.80;99.90;;;;;;5031160;28;20504;-91
2022/10/14 05:01:38;;;;;;;68.00;31.92;;;12.80;99.90;;;;;;5030841;28;20087;-89
2022/10/14 05:04:04;;;;;;;69.80;32.55;;;12.80;99.90;;;;;;5031817;28;20030;-90
2022/10/14 05:06:30;;;;;;;68.40;32.60;;;12.80;99.90;;;;;;5026698;28;20539;-90
2022/10/14 05:08:56;;;;;;;79.13;34.30;;;12.80;99.90;;;;;;5029188;28;20026;-90
2022/10/14 05:11:21;;;;;;;68.28;33.10;;;12.80;99.90;;;;;;5028153;28;20040;-90
2022/10/14 05:13:47;;;;;;;64.10;33.53;;;12.80;99.90;;;;;;5028558;28;20034;-90
2022/10/14 05:16:13;;;;;;;62.92;31.65;;;12.90;99.90;;;;;;5047263;28;20097;-88
2022/10/14 05:18:39;;;;;;;67.95;32.75;;;12.90;99.90;;;;;;5029504;28;20034;-91
2022/10/14 05:21:04;;;;;;;59.25;30.38;;;12.90;99.90;;;;;;5048259;28;20116;-89
2022/10/14 05:23:30;;;;;;;75.47;32.58;;;12.90;99.90;;;;;;5045809;28;20025;-89
2022/10/14 05:25:55;;;;;;;69.60;31.35;;;12.90;99.90;;;;;;5032598;28;20070;-90
2022/10/14 05:28:21;;;;;;;70.97;30.27;;;12.90;99.90;;;;;;5035388;28;20022;-90
2022/10/14 05:30:46;;;;;;;66.25;30.23;;;12.90;99.90;;;;;;5032191;28;20029;-90
2022/10/14 05:33:13;;;;;;;54.72;30.38;;;12.90;99.90;;;;;;5041979;28;20032;-91
2022/10/14 05:35:39;;;;;;;59.72;30.00;;;12.90;99.90;;;;;;5034587;28;20497;-92
2022/10/14 05:38:05;;;;;;;67.15;30.70;;;12.90;99.90;;;;;;5035707;28;20032;-90
2022/10/14 05:40:30;;;;;;;63.03;30.30;;;12.90;99.90;;;;;;5034734;28;20465;-91
2022/10/14 05:42:56;;;;;;;62.58;30.88;;;12.90;99.90;;;;;;5030673;28;20380;-91
2022/10/14 05:45:22;;;;;;;60.50;31.02;;;12.90;99.90;;;;;;5032049;28;20040;-90
2022/10/14 05:47:47;;;;;;;61.47;29.05;;;13.00;99.90;;;;;;5047466;28;20036;-90
2022/10/14 05:50:13;;;;;;;53.13;27.48;;;13.00;99.90;;;;;;5035728;28;20578;-91
2022/10/14 05:52:39;;;;;;;57.28;29.38;;;13.00;99.90;;;;;;5033851;28;20170;-91
2022/10/14 05:55:07;;;;;;;59.42;30.27;;;13.00;99.90;;;;;;5029864;28;20170;-91
2022/10/14 05:57:32;;;;;;;64.55;29.17;;;13.00;99.90;;;;;;5029510;28;20033;-91
2022/10/14 05:59:59;;;;;;;62.47;30.25;;;13.00;99.90;;;;;;5031020;28;20038;-92
2022/10/14 06:02:24;;;;;;;68.32;30.33;;;13.00;99.90;;;;;;5029221;28;20032;-91
2022/10/14 06:04:50;;;;;;;58.53;30.88;;;13.00;99.90;;;;;;5037136;28;20021;-90
2022/10/14 06:07:16;;;;;;;68.57;31.90;;;13.00;99.90;;;;;;5022503;28;20022;-90
2022/10/14 06:09:41;;;;;;;66.25;30.75;;;13.10;99.90;;;;;;5033491;28;20029;-90
2022/10/14 06:12:08;;;;;;;63.25;30.52;;;13.10;99.90;;;;;;5029538;28;20036;-90
2022/10/14 06:14:35;;;;;;;60.20;30.02;;;13.10;99.90;;;;;;5040384;28;20037;-91
2022/10/14 06:17:01;;;;;;;64.18;29.08;;;13.10;99.90;;;;;;5038020;28;20029;-92
2022/10/14 06:19:26;;;;;;;66.80;30.55;;;13.10;99.90;;;;;;5032670;28;20035;-92
2022/10/14 06:21:52;;;;;;;63.20;28.90;;;13.10;99.90;;;;;;5032922;28;20026;-92
2022/10/14 06:24:18;;;;;;;64.00;29.63;;;13.20;99.90;;;;;;5031956;28;20029;-92
2022/10/14 06:26:43;;;;;;;61.33;30.13;;;13.10;99.90;;;;;;5031374;28;20036;-92
2022/10/14 06:29:09;;;;;;;58.88;29.05;;;13.20;99.90;;;;;;5033616;28;20481;-93
2022/10/14 06:31:35;;;;;;;64.50;29.42;;;13.10;99.90;;;;;;5031593;28;20025;-92
2022/10/14 06:34:04;;;;;;;63.03;29.65;;;13.20;99.90;;;;;;5033541;28;20029;-91
2022/10/14 06:36:29;;;;;;;60.03;29.42;;;13.20;99.90;;;;;;5014483;28;20030;-93
2022/10/14 06:38:55;;;;;;;65.10;31.05;;;13.20;99.90;;;;;;5028827;28;20032;-92
2022/10/14 06:41:20;;;;;;;63.58;29.67;;;13.20;99.90;;;;;;5033637;28;20104;-93
2022/10/14 06:43:47;;;;;;;59.53;29.33;;;13.30;99.90;;;;;;5031907;28;20026;-93
2022/10/14 06:46:12;;;;;;;63.47;29.85;;;13.20;99.90;;;;;;5029195;28;20045;-93
2022/10/14 06:48:38;;;;;;;61.92;29.88;;;13.30;99.90;;;;;;5031590;28;20049;-93
2022/10/14 06:51:04;;;;;;;66.93;29.45;;;13.30;99.90;;;;;;5027537;28;20040;-93
2022/10/14 06:53:29;;;;;;;71.07;30.52;;;13.30;99.90;;;;;;5022761;28;20029;-92
2022/10/14 06:56:03;;;;;;;62.20;28.08;;;13.30;99.90;;;;;;5030899;28;20384;-92
2022/10/14 06:58:30;;;;;;;58.50;28.75;;;13.30;99.90;;;;;;5015542;28;20478;-92
2022/10/14 07:01:03;;;;;;;49.45;26.65;;;13.40;99.90;;;;;;5032766;28;20026;-93
2022/10/14 07:03:29;;;;;;;57.15;28.23;;;13.40;99.90;;;;;;5046709;28;20021;-92
2022/10/14 07:05:54;;;;;;;55.38;27.23;;;13.40;99.90;;;;;;5020274;28;20032;-93
2022/10/14 07:08:20;;;;;;;56.08;27.25;;;13.40;99.90;;;;;;5030891;28;20041;-91
2022/10/14 07:10:46;;;;;;;48.85;25.50;;;13.40;99.90;;;;;;5046726;28;20385;-91
2022/10/14 07:13:12;;;;;;;50.78;26.00;;;13.50;99.90;;;;;;5023230;28;20026;-91
2022/10/14 07:15:38;;;;;;;47.00;25.77;;;13.50;99.90;;;;;;5041587;28;20037;-90
2022/10/14 07:18:05;;;;;;;53.58;26.50;;;13.50;99.90;;;;;;5025638;28;20465;-91
2022/10/14 07:20:32;;;;;;;48.45;25.60;;;13.50;99.90;;;;;;5033782;28;20029;-91
2022/10/14 07:22:57;;;;;;;50.90;26.30;;;13.50;99.90;;;;;;5030755;28;20499;-91
2022/10/14 07:25:23;;;;;;;52.20;26.83;;;13.60;99.90;;;;;;5029066;28;20116;-91
2022/10/14 07:27:52;;;;;;;56.58;27.40;;;13.60;99.90;;;;;;5032207;28;20026;-91
2022/10/14 07:30:18;;;;;;;48.15;26.75;;;13.60;99.90;;;;;;5031208;28;20036;-91
2022/10/14 07:32:44;;;;;;;48.38;26.08;;;13.60;99.90;;;;;;5029136;28;20456;-91
2022/10/14 07:35:10;;;;;;;46.70;25.90;;;13.60;99.90;;;;;;5019529;28;20052;-90
2022/10/14 07:37:36;;;;;;;47.38;26.25;;;13.60;99.90;;;;;;5023745;28;20029;-91
2022/10/14 07:40:02;;;;;;;42.30;24.60;;;13.70;99.90;;;;;;5022641;28;20033;-89
2022/10/14 07:42:28;;;;;;;41.55;24.63;;;13.70;99.90;;;;;;5024432;28;20025;-89
2022/10/14 07:44:54;;;;;;;44.08;24.83;;;13.80;99.90;;;;;;5024447;28;20036;-90
2022/10/14 07:47:20;;;;;;;44.45;25.27;;;13.80;99.90;;;;;;5024861;28;20085;-90
2022/10/14 07:49:46;;;;;;;42.42;23.92;;;13.80;99.90;;;;;;5029432;28;20042;-89
2022/10/14 07:52:11;;;;;;;38.95;24.70;;;13.90;99.90;;;;;;5025414;28;20026;-89
2022/10/14 07:54:37;;;;;;;36.65;23.17;;;13.90;99.90;;;;;;5032131;28;20029;-90
2022/10/14 07:57:03;;;;;;;40.15;24.10;;;13.90;99.90;;;;;;5028835;28;20026;-90
2022/10/14 07:59:28;;;;;;;40.13;24.27;;;13.90;99.90;;;;;;5030804;28;20021;-90
2022/10/14 08:01:55;;;;;;;42.17;24.70;;;13.90;99.90;;;;;;5032622;28;20037;-90
2022/10/14 08:04:21;;;;;;;44.90;24.83;;;14.00;99.90;;;;;;5031491;28;20022;-89
2022/10/14 08:06:47;;;;;;;38.58;24.20;;;14.00;99.90;;;;;;5047057;28;20044;-90
2022/10/14 08:09:13;;;;;;;40.05;23.92;;;14.00;99.90;;;;;;5014749;28;20030;-90
2022/10/14 08:11:39;;;;;;;35.50;24.60;;;14.10;99.90;;;;;;5032124;28;20033;-90
2022/10/14 08:14:05;;;;;;;36.92;23.50;;;14.10;99.90;;;;;;5031483;28;20021;-90
2022/10/14 08:16:33;;;;;;;39.10;24.20;;;14.10;99.90;;;;;;5029404;28;20041;-94
2022/10/14 08:19:02;;;;;;;38.35;24.10;;;14.10;99.90;;;;;;5030590;28;20470;-88
2022/10/14 08:21:27;;;;;;;35.92;24.10;;;14.10;99.90;;;;;;5027495;28;20493;-89
2022/10/14 08:23:53;;;;;;;40.33;24.23;;;14.10;99.90;;;;;;5030835;28;20026;-88
2022/10/14 08:26:33;;;;;;;37.58;24.30;;;14.10;99.90;;;;;;5027968;28;20060;-89
2022/10/14 08:29:00;;;;;;;35.08;23.30;;;14.10;99.90;;;;;;5032529;28;20029;-89
2022/10/14 08:31:25;;;;;;;36.38;23.65;;;14.20;99.90;;;;;;5028815;28;20034;-90
2022/10/14 08:33:51;;;;;;;34.13;22.45;;;14.20;99.90;;;;;;5029166;28;20445;-90
2022/10/14 08:36:18;;;;;;;37.20;23.00;;;14.20;99.90;;;;;;5043818;28;20037;-91
2022/10/14 08:38:43;;;;;;;38.83;23.00;;;14.20;99.90;;;;;;5051540;28;20025;-91
2022/10/14 08:41:15;;;;;;;31.45;21.80;;;14.20;99.90;;;;;;5028267;28;20029;-91
2022/10/14 08:44:21;;;;;;;33.97;23.23;;;14.20;99.90;;;;;;5043446;28;20061;-90
2022/10/14 08:47:02;;;;;;;31.75;21.45;;;14.30;99.90;;;;;;5048006;28;20034;-90
2022/10/14 08:49:57;;;;;;;29.95;21.13;;;14.30;99.90;;;;;;5031737;28;20128;-90
2022/10/14 08:52:38;;;;;;;27.80;20.23;;;14.30;99.90;;;;;;5023156;28;20013;-90
2022/10/14 08:55:20;;;;;;;31.30;21.85;;;14.30;99.90;;;;;;5030621;28;20401;-90
2022/10/14 08:57:52;;;;;;;31.60;21.27;;;14.40;99.90;;;;;;5031673;28;20151;-90
2022/10/14 09:00:19;;;;;;;29.85;21.67;;;14.40;99.90;;;;;;5032846;28;20060;-89
2022/10/14 09:02:51;;;;;;;30.90;20.83;;;14.50;99.90;;;;;;5042511;28;20025;-90
2022/10/14 09:05:25;;;;;;;30.73;20.02;;;14.50;99.90;;;;;;5033632;28;20057;-89
2022/10/14 09:07:54;;;;;;;29.38;20.70;;;14.60;99.90;;;;;;5036591;28;20026;-90
2022/10/14 09:10:40;;;;;;;28.08;19.77;;;14.60;99.90;;;;;;5031956;28;20032;-89
2022/10/14 09:13:17;;;;;;;27.50;20.45;;;14.70;99.90;;;;;;5035637;28;20385;-87
2022/10/14 09:15:49;;;;;;;25.27;18.92;;;14.80;99.90;;;;;;5021423;28;20030;-88
2022/10/14 09:18:27;;;;;;;23.33;17.63;;;14.80;99.90;;;;;;5028324;28;20061;-88
2022/10/14 09:20:55;;;;;;;25.60;18.33;;;14.90;99.90;;;;;;5035335;28;20044;-88
2022/10/14 09:23:22;;;;;;;24.17;19.25;;;14.90;99.90;;;;;;5034001;28;20025;-89
2022/10/14 09:26:00;;;;;;;24.08;17.90;;;14.90;99.90;;;;;;5034383;28;20025;-88
2022/10/14 09:28:36;;;;;;;22.50;18.50;;;15.00;99.90;;;;;;5014941;28;20022;-88
2022/10/14 09:31:04;;;;;;;22.00;17.25;;;15.00;99.90;;;;;;5028931;28;20033;-88
2022/10/14 09:33:29;;;;;;;21.23;16.38;;;15.10;99.90;;;;;;5035005;28;20056;-88
2022/10/14 09:35:56;;;;;;;22.13;16.80;;;15.20;99.90;;;;;;5034744;28;20033;-88
2022/10/14 09:38:23;;;;;;;20.13;15.55;;;15.30;99.90;;;;;;5047291;28;20025;-88
2022/10/14 09:40:53;;;;;;;20.02;15.38;;;15.30;99.90;;;;;;5030200;28;20029;-89
2022/10/14 09:43:21;;;;;;;21.38;16.25;;;15.30;99.90;;;;;;5034501;28;20072;-88
2022/10/14 09:46:00;;;;;;;19.05;16.00;;;15.40;99.90;;;;;;5033848;28;20815;-89
2022/10/14 09:48:35;;;;;;;19.33;14.68;;;15.40;99.90;;;;;;5037217;28;20032;-89
2022/10/14 09:51:04;;;;;;;19.52;15.48;;;15.40;99.90;;;;;;5017403;28;20026;-89
2022/10/14 09:53:33;;;;;;;17.75;14.48;;;15.40;99.90;;;;;;5030687;28;20053;-88
2022/10/14 09:56:00;;;;;;;19.02;14.60;;;15.40;99.90;;;;;;5029627;28;20048;-90
2022/10/14 09:58:52;;;;;;;15.88;13.43;;;15.40;99.90;;;;;;5022564;28;20112;-89
2022/10/14 10:01:20;;;;;;;19.33;15.02;;;15.50;99.90;;;;;;5048662;28;20032;-89
2022/10/14 10:03:47;;;;;;;19.52;14.57;;;15.60;99.90;;;;;;5030257;28;20087;-88
2022/10/14 10:06:17;;;;;;;15.25;13.63;;;15.60;99.90;;;;;;5024773;28;20025;-89
2022/10/14 10:08:54;;;;;;;17.05;14.00;;;15.60;99.90;;;;;;5032873;28;20033;-89
2022/10/14 10:11:37;;;;;;;15.10;12.90;;;15.70;99.90;;;;;;5025254;28;20555;-88
2022/10/14 10:14:26;;;;;;;16.52;14.00;;;15.70;99.90;;;;;;5022685;28;20372;-89
2022/10/14 10:17:11;;;;;;;15.57;12.48;;;15.70;99.90;;;;;;5032121;28;20466;-89
2022/10/14 10:19:40;;;;;;;14.50;11.93;;;15.70;99.90;;;;;;5030379;28;20021;-89
2022/10/14 10:22:30;;;;;;;13.45;12.05;;;15.80;99.90;;;;;;5034517;28;20152;-89
2022/10/14 10:25:05;;;;;;;16.98;12.93;;;16.00;99.90;;;;;;5026396;28;20522;-89
2022/10/14 10:27:36;;;;;;;12.65;11.32;;;16.00;99.90;;;;;;5037674;28;20026;-88
2022/10/14 10:30:17;;;;;;;13.10;10.93;;;16.00;99.90;;;;;;5021736;28;20022;-89
2022/10/14 10:32:46;;;;;;;12.35;10.48;;;16.10;99.90;;;;;;5027198;28;20112;-89
2022/10/14 10:35:17;;;;;;;14.30;11.05;;;16.10;99.90;;;;;;5030040;28;20045;-89
2022/10/14 10:37:51;;;;;;;12.65;10.52;;;16.10;99.90;;;;;;5032716;28;20028;-89
2022/10/14 10:40:31;;;;;;;15.65;10.38;;;16.10;99.90;;;;;;5028310;28;20367;-89
2022/10/14 10:43:24;;;;;;;14.30;10.07;;;16.10;99.90;;;;;;5028624;28;20036;-89
2022/10/14 10:45:49;;;;;;;11.48;10.25;;;16.00;99.90;;;;;;5031114;28;20034;-89
2022/10/14 10:48:23;;;;;;;13.43;10.60;;;16.00;99.90;;;;;;5033574;28;20029;-89
2022/10/14 10:51:01;;;;;;;11.43;9.90;;;16.00;99.90;;;;;;5029395;28;20040;-90
2022/10/14 10:54:05;;;;;;;12.60;9.55;;;16.10;99.90;;;;;;5026771;28;20087;-90
2022/10/14 10:56:49;;;;;;;9.88;8.85;;;16.10;99.90;;;;;;5047404;28;20041;-89
2022/10/14 10:59:30;;;;;;;10.35;8.55;;;16.10;99.90;;;;;;5043272;28;20024;-90
2022/10/14 11:02:18;;;;;;;11.75;8.10;;;16.20;99.90;;;;;;5016345;28;20477;-89
2022/10/14 11:05:10;;;;;;;9.90;8.48;;;16.20;99.90;;;;;;5023120;28;20120;-89
2022/10/14 11:14:23;;;;;;;9.68;7.88;;;16.20;99.90;;;;;;5031303;28;20110;-89
2022/10/14 11:17:16;;;;;;;9.63;7.50;;;16.10;99.90;;;;;;5030200;28;20033;-89
2022/10/14 11:19:54;;;;;;;9.85;7.03;;;16.20;99.90;;;;;;5033775;28;20018;-90
2022/10/14 11:22:50;;;;;;;10.35;8.30;;;16.20;99.90;;;;;;5032340;28;20083;-90
2022/10/14 11:25:23;;;;;;;10.32;7.20;;;16.20;99.90;;;;;;5034477;28;20017;-91
2022/10/14 11:28:09;;;;;;;8.10;7.30;;;16.20;99.90;;;;;;5027564;28;21654;-90
2022/10/14 11:31:02;;;;;;;8.43;5.97;;;16.20;99.90;;;;;;5025734;28;20030;-90
2022/10/14 11:33:47;;;;;;;7.50;6.68;;;16.20;99.90;;;;;;5029606;28;20037;-91
2022/10/14 11:36:38;;;;;;;6.53;5.93;;;16.10;99.90;;;;;;5054532;28;20031;-93
2022/10/14 11:39:38;;;;;;;8.15;6.50;;;16.10;99.90;;;;;;5033883;28;20032;-93
2022/10/14 11:42:23;;;;;;;6.40;5.45;;;16.00;99.90;;;;;;5030635;28;20435;-95
2022/10/14 11:45:05;;;;;;;6.13;5.28;;;16.00;99.90;;;;;;5033929;28;20135;-94
2022/10/14 11:47:34;;;;;;;6.22;5.03;;;15.90;99.90;;;;;;5027697;28;20465;-94
2022/10/14 11:50:10;;;;;;;7.63;5.28;;;15.90;99.90;;;;;;5041936;28;20053;-94
2022/10/14 11:52:41;;;;;;;8.63;5.53;;;15.90;99.90;;;;;;5032426;28;20056;-95
2022/10/14 11:55:27;;;;;;;6.75;4.45;;;15.90;99.90;;;;;;5017814;28;23431;-91
2022/10/14 11:58:11;;;;;;;6.05;5.28;;;15.90;99.90;;;;;;5019971;28;20090;-92
2022/10/14 12:00:38;;;;;;;6.07;4.78;;;15.90;99.90;;;;;;5032393;28;20454;-93
2022/10/14 12:03:42;;;;;;;6.95;4.68;;;15.90;99.90;;;;;;5025368;28;20065;-91
2022/10/14 12:06:47;;;;;;;7.40;4.57;;;15.90;99.90;;;;;;5024626;28;20034;-92
2022/10/14 12:09:31;;;;;;;5.22;4.35;;;15.90;99.90;;;;;;5027515;28;20026;-93
2022/10/14 12:12:06;;;;;;;4.70;4.13;;;15.90;99.90;;;;;;5030088;28;20516;-90
2022/10/14 12:14:42;;;;;;;7.00;5.10;;;15.90;99.90;;;;;;5038602;28;20029;-91
2022/10/14 12:17:20;;;;;;;6.07;4.97;;;15.90;99.90;;;;;;5030894;28;20029;-91
2022/10/14 12:19:46;;;;;;;5.80;5.00;;;15.90;99.90;;;;;;5029483;28;20024;-91
2022/10/14 12:22:22;;;;;;;6.20;5.28;;;16.00;99.90;;;;;;5038832;28;20032;-92
2022/10/14 12:24:51;;;;;;;6.60;4.68;;;16.00;99.90;;;;;;5012628;28;20025;-90
2022/10/14 12:27:18;;;;;;;7.13;4.78;;;16.10;99.90;;;;;;5023653;28;20017;-92
2022/10/14 12:29:47;;;;;;;6.88;4.70;;;16.10;99.90;;;;;;5026220;28;20098;-92
2022/10/14 12:32:15;;;;;;;6.05;4.57;;;16.10;99.90;;;;;;5031366;28;20033;-91
2022/10/14 12:34:42;;;;;;;5.13;3.90;;;16.10;99.90;;;;;;5029357;28;20548;-92
2022/10/14 12:37:23;;;;;;;5.50;4.05;;;16.10;99.90;;;;;;5034705;28;20481;-90
2022/10/14 12:40:13;;;;;;;6.50;3.90;;;16.10;99.90;;;;;;5036501;28;20084;-91
2022/10/14 12:43:02;;;;;;;4.65;3.65;;;16.10;99.90;;;;;;5033194;28;20061;-91
2022/10/14 12:45:31;;;;;;;4.35;3.53;;;16.00;99.90;;;;;;5024101;28;20025;-93
2022/10/14 12:48:19;;;;;;;5.15;3.55;;;16.00;99.90;;;;;;5026811;28;20030;-94
2022/10/14 12:50:47;;;;;;;5.00;3.75;;;16.00;99.90;;;;;;5031874;28;20071;-91
2022/10/14 12:53:27;;;;;;;4.50;3.90;;;16.00;99.90;;;;;;5034858;28;20087;-91
2022/10/14 12:55:58;;;;;;;6.72;4.50;;;16.00;99.90;;;;;;5034923;28;20037;-91